sensor_id;sensor_type;location;lat;lon;timestamp;P1;durP1;ratioP1;P2;durP2;ratioP2
24873;SDS011;12945;42.648;23.370;2023-09-07T00:01:39;12.48;;;9.88;;
24873;SDS011;12945;42.648;23.370;2023-09-07T00:04:04;15.38;;;11.05;;
24873;SDS011;12945;42.648;23.370;2023-09-07T00:06:31;18.60;;;10.90;;
24873;SDS011;12945;42.648;23.370;2023-09-07T00:08:56;16.15;;;10.52;;
24873;SDS011;12945;42.648;23.370;2023-09-07T00:11:21;16.95;;;11.20;;
24873;SDS011;12945;42.648;23.370;2023-09-07T00:13:47;15.07;;;10.98;;
24873;SDS011;12945;42.648;23.370;2023-09-07T00:16:12;16.05;;;10.43;;
24873;SDS011;12945;42.648;23.370;2023-09-07T00:18:37;13.65;;;10.93;;
24873;SDS011;12945;42.648;23.370;2023-09-07T00:21:03;14.52;;;11.68;;
24873;SDS011;12945;42.648;23.370;2023-09-07T00:23:29;13.68;;;10.40;;
24873;SDS011;12945;42.648;23.370;2023-09-07T00:25:55;15.38;;;11.32;;
24873;SDS011;12945;42.648;23.370;2023-09-07T00:28:20;17.02;;;12.10;;
24873;SDS011;12945;42.648;23.370;2023-09-07T00:30:45;17.83;;;11.38;;
24873;SDS011;12945;42.648;23.370;2023-09-07T00:33:11;19.00;;;11.10;;
24873;SDS011;12945;42.648;23.370;2023-09-07T00:35:36;17.98;;;11.52;;
24873;SDS011;12945;42.648;23.370;2023-09-07T00:38:02;21.60;;;11.00;;
24873;SDS011;12945;42.648;23.370;2023-09-07T00:40:27;20.40;;;11.07;;
24873;SDS011;12945;42.648;23.370;2023-09-07T00:42:53;13.75;;;11.32;;
24873;SDS011;12945;42.648;23.370;2023-09-07T00:45:18;17.17;;;10.93;;
24873;SDS011;12945;42.648;23.370;2023-09-07T00:47:44;16.38;;;11.80;;
24873;SDS011;12945;42.648;23.370;2023-09-07T00:50:09;18.60;;;11.57;;
24873;SDS011;12945;42.648;23.370;2023-09-07T00:52:38;19.67;;;11.90;;
24873;SDS011;12945;42.648;23.370;2023-09-07T00:55:05;19.70;;;12.15;;
24873;SDS011;12945;42.648;23.370;2023-09-07T00:57:31;17.55;;;11.82;;
24873;SDS011;12945;42.648;23.370;2023-09-07T00:59:56;17.38;;;12.00;;
24873;SDS011;12945;42.648;23.370;2023-09-07T01:02:22;15.57;;;13.30;;
24873;SDS011;12945;42.648;23.370;2023-09-07T01:04:48;20.17;;;13.00;;
24873;SDS011;12945;42.648;23.370;2023-09-07T01:09:41;20.85;;;12.93;;
24873;SDS011;12945;42.648;23.370;2023-09-07T01:12:07;19.55;;;13.77;;
24873;SDS011;12945;42.648;23.370;2023-09-07T01:14:36;16.25;;;13.48;;
24873;SDS011;12945;42.648;23.370;2023-09-07T01:17:01;18.63;;;15.13;;
24873;SDS011;12945;42.648;23.370;2023-09-07T01:19:26;21.63;;;15.52;;
24873;SDS011;12945;42.648;23.370;2023-09-07T01:21:52;21.98;;;14.10;;
24873;SDS011;12945;42.648;23.370;2023-09-07T01:24:17;18.70;;;15.35;;
24873;SDS011;12945;42.648;23.370;2023-09-07T01:26:43;20.05;;;14.30;;
24873;SDS011;12945;42.648;23.370;2023-09-07T01:29:08;17.65;;;15.00;;
24873;SDS011;12945;42.648;23.370;2023-09-07T01:31:37;24.40;;;14.50;;
24873;SDS011;12945;42.648;23.370;2023-09-07T01:34:05;23.90;;;14.85;;
24873;SDS011;12945;42.648;23.370;2023-09-07T01:36:31;20.88;;;14.98;;
24873;SDS011;12945;42.648;23.370;2023-09-07T01:38:57;21.00;;;15.07;;
24873;SDS011;12945;42.648;23.370;2023-09-07T01:41:22;19.58;;;15.25;;
24873;SDS011;12945;42.648;23.370;2023-09-07T01:43:47;18.73;;;14.90;;
24873;SDS011;12945;42.648;23.370;2023-09-07T01:46:13;20.50;;;15.45;;
24873;SDS011;12945;42.648;23.370;2023-09-07T01:48:38;22.58;;;14.95;;
24873;SDS011;12945;42.648;23.370;2023-09-07T01:51:03;18.40;;;14.48;;
24873;SDS011;12945;42.648;23.370;2023-09-07T01:53:28;20.75;;;15.23;;
24873;SDS011;12945;42.648;23.370;2023-09-07T01:55:54;19.08;;;15.32;;
24873;SDS011;12945;42.648;23.370;2023-09-07T01:58:20;20.98;;;15.40;;
24873;SDS011;12945;42.648;23.370;2023-09-07T02:00:46;22.23;;;15.48;;
24873;SDS011;12945;42.648;23.370;2023-09-07T02:03:11;25.23;;;15.65;;
24873;SDS011;12945;42.648;23.370;2023-09-07T02:05:36;22.17;;;15.35;;
24873;SDS011;12945;42.648;23.370;2023-09-07T02:08:02;19.35;;;15.07;;
24873;SDS011;12945;42.648;23.370;2023-09-07T02:10:27;25.63;;;16.73;;
24873;SDS011;12945;42.648;23.370;2023-09-07T02:12:53;21.95;;;15.63;;
24873;SDS011;12945;42.648;23.370;2023-09-07T02:15:19;19.45;;;16.45;;
24873;SDS011;12945;42.648;23.370;2023-09-07T02:17:44;22.60;;;16.92;;
24873;SDS011;12945;42.648;23.370;2023-09-07T02:20:10;19.45;;;16.35;;
24873;SDS011;12945;42.648;23.370;2023-09-07T02:22:36;22.45;;;16.33;;
24873;SDS011;12945;42.648;23.370;2023-09-07T02:25:01;24.48;;;16.17;;
24873;SDS011;12945;42.648;23.370;2023-09-07T02:27:27;19.88;;;16.40;;
24873;SDS011;12945;42.648;23.370;2023-09-07T02:29:52;23.08;;;16.80;;
24873;SDS011;12945;42.648;23.370;2023-09-07T02:32:17;25.70;;;16.80;;
24873;SDS011;12945;42.648;23.370;2023-09-07T02:34:42;21.98;;;16.27;;
24873;SDS011;12945;42.648;23.370;2023-09-07T02:37:08;25.40;;;16.48;;
24873;SDS011;12945;42.648;23.370;2023-09-07T02:39:33;20.23;;;15.80;;
24873;SDS011;12945;42.648;23.370;2023-09-07T02:41:58;19.38;;;14.85;;
24873;SDS011;12945;42.648;23.370;2023-09-07T02:44:24;20.92;;;16.35;;
24873;SDS011;12945;42.648;23.370;2023-09-07T02:46:49;20.23;;;16.50;;
24873;SDS011;12945;42.648;23.370;2023-09-07T02:49:14;29.85;;;17.33;;
24873;SDS011;12945;42.648;23.370;2023-09-07T02:51:40;22.80;;;16.40;;
24873;SDS011;12945;42.648;23.370;2023-09-07T02:54:05;22.38;;;16.23;;
24873;SDS011;12945;42.648;23.370;2023-09-07T02:56:31;27.30;;;17.02;;
24873;SDS011;12945;42.648;23.370;2023-09-07T02:58:56;22.90;;;16.38;;
24873;SDS011;12945;42.648;23.370;2023-09-07T03:01:21;21.38;;;16.60;;
24873;SDS011;12945;42.648;23.370;2023-09-07T03:03:47;22.27;;;16.40;;
24873;SDS011;12945;42.648;23.370;2023-09-07T03:06:12;33.08;;;18.58;;
24873;SDS011;12945;42.648;23.370;2023-09-07T03:08:41;29.02;;;19.25;;
24873;SDS011;12945;42.648;23.370;2023-09-07T03:11:06;29.80;;;18.58;;
24873;SDS011;12945;42.648;23.370;2023-09-07T03:13:32;30.15;;;19.67;;
24873;SDS011;12945;42.648;23.370;2023-09-07T03:15:58;23.95;;;19.45;;
24873;SDS011;12945;42.648;23.370;2023-09-07T03:18:23;26.00;;;20.00;;
24873;SDS011;12945;42.648;23.370;2023-09-07T03:20:49;27.65;;;20.38;;
24873;SDS011;12945;42.648;23.370;2023-09-07T03:23:14;30.10;;;20.92;;
24873;SDS011;12945;42.648;23.370;2023-09-07T03:25:40;28.08;;;21.77;;
24873;SDS011;12945;42.648;23.370;2023-09-07T03:28:05;31.80;;;20.85;;
24873;SDS011;12945;42.648;23.370;2023-09-07T03:30:31;29.55;;;22.17;;
24873;SDS011;12945;42.648;23.370;2023-09-07T03:32:56;34.38;;;21.92;;
24873;SDS011;12945;42.648;23.370;2023-09-07T03:35:22;28.92;;;22.60;;
24873;SDS011;12945;42.648;23.370;2023-09-07T03:37:47;32.95;;;22.35;;
24873;SDS011;12945;42.648;23.370;2023-09-07T03:40:12;29.55;;;22.02;;
24873;SDS011;12945;42.648;23.370;2023-09-07T03:42:37;30.48;;;22.02;;
24873;SDS011;12945;42.648;23.370;2023-09-07T03:45:04;28.05;;;23.15;;
24873;SDS011;12945;42.648;23.370;2023-09-07T03:47:29;32.35;;;22.55;;
24873;SDS011;12945;42.648;23.370;2023-09-07T03:49:55;32.97;;;23.00;;
24873;SDS011;12945;42.648;23.370;2023-09-07T03:52:22;28.45;;;22.42;;
24873;SDS011;12945;42.648;23.370;2023-09-07T03:54:49;34.50;;;22.90;;
24873;SDS011;12945;42.648;23.370;2023-09-07T03:57:14;29.70;;;22.08;;
24873;SDS011;12945;42.648;23.370;2023-09-07T03:59:40;28.55;;;22.33;;
24873;SDS011;12945;42.648;23.370;2023-09-07T04:02:05;28.48;;;21.63;;
24873;SDS011;12945;42.648;23.370;2023-09-07T04:04:30;28.10;;;20.55;;
24873;SDS011;12945;42.648;23.370;2023-09-07T04:06:55;28.60;;;22.50;;
24873;SDS011;12945;42.648;23.370;2023-09-07T04:09:21;29.85;;;21.27;;
24873;SDS011;12945;42.648;23.370;2023-09-07T04:11:46;29.02;;;21.80;;
24873;SDS011;12945;42.648;23.370;2023-09-07T04:14:11;26.70;;;21.83;;
24873;SDS011;12945;42.648;23.370;2023-09-07T04:16:37;25.85;;;21.38;;
24873;SDS011;12945;42.648;23.370;2023-09-07T04:19:03;31.00;;;21.80;;
24873;SDS011;12945;42.648;23.370;2023-09-07T04:21:28;26.25;;;21.30;;
24873;SDS011;12945;42.648;23.370;2023-09-07T04:23:53;30.23;;;21.60;;
24873;SDS011;12945;42.648;23.370;2023-09-07T04:26:19;28.85;;;21.73;;
24873;SDS011;12945;42.648;23.370;2023-09-07T04:28:44;27.45;;;21.40;;
24873;SDS011;12945;42.648;23.370;2023-09-07T04:31:09;26.70;;;20.88;;
24873;SDS011;12945;42.648;23.370;2023-09-07T04:33:35;29.95;;;22.48;;
24873;SDS011;12945;42.648;23.370;2023-09-07T04:36:13;30.27;;;21.67;;
24873;SDS011;12945;42.648;23.370;2023-09-07T04:38:39;24.42;;;20.50;;
24873;SDS011;12945;42.648;23.370;2023-09-07T04:41:11;25.85;;;20.58;;
24873;SDS011;12945;42.648;23.370;2023-09-07T04:43:37;27.88;;;20.50;;
24873;SDS011;12945;42.648;23.370;2023-09-07T04:46:03;28.27;;;21.58;;
24873;SDS011;12945;42.648;23.370;2023-09-07T04:48:29;25.63;;;20.63;;
24873;SDS011;12945;42.648;23.370;2023-09-07T04:51:00;25.92;;;21.13;;
24873;SDS011;12945;42.648;23.370;2023-09-07T04:53:29;28.50;;;21.70;;
24873;SDS011;12945;42.648;23.370;2023-09-07T04:55:55;26.47;;;21.23;;
24873;SDS011;12945;42.648;23.370;2023-09-07T04:58:21;27.75;;;21.52;;
24873;SDS011;12945;42.648;23.370;2023-09-07T05:00:46;25.05;;;20.25;;
24873;SDS011;12945;42.648;23.370;2023-09-07T05:03:11;28.38;;;20.55;;
24873;SDS011;12945;42.648;23.370;2023-09-07T05:05:38;28.33;;;20.52;;
24873;SDS011;12945;42.648;23.370;2023-09-07T05:08:15;25.85;;;20.95;;
24873;SDS011;12945;42.648;23.370;2023-09-07T05:10:40;28.05;;;21.67;;
24873;SDS011;12945;42.648;23.370;2023-09-07T05:13:06;28.77;;;21.52;;
24873;SDS011;12945;42.648;23.370;2023-09-07T05:15:31;32.08;;;21.23;;
24873;SDS011;12945;42.648;23.370;2023-09-07T05:17:56;30.33;;;21.40;;
24873;SDS011;12945;42.648;23.370;2023-09-07T05:20:21;29.70;;;22.20;;
24873;SDS011;12945;42.648;23.370;2023-09-07T05:22:47;26.02;;;21.15;;
24873;SDS011;12945;42.648;23.370;2023-09-07T05:25:12;27.98;;;20.33;;
24873;SDS011;12945;42.648;23.370;2023-09-07T06:14:40;30.15;;;18.23;;
24873;SDS011;12945;42.648;23.370;2023-09-07T06:17:05;28.45;;;17.73;;
24873;SDS011;12945;42.648;23.370;2023-09-07T06:19:31;23.05;;;16.73;;
24873;SDS011;12945;42.648;23.370;2023-09-07T06:21:56;19.67;;;14.95;;
24873;SDS011;12945;42.648;23.370;2023-09-07T06:24:22;19.55;;;14.07;;
24873;SDS011;12945;42.648;23.370;2023-09-07T06:26:47;22.10;;;13.70;;
24873;SDS011;12945;42.648;23.370;2023-09-07T06:29:13;19.00;;;14.20;;
24873;SDS011;12945;42.648;23.370;2023-09-07T06:31:38;19.95;;;13.68;;
24873;SDS011;12945;42.648;23.370;2023-09-07T06:34:04;23.17;;;14.85;;
24873;SDS011;12945;42.648;23.370;2023-09-07T06:36:29;20.27;;;14.57;;
24873;SDS011;12945;42.648;23.370;2023-09-07T06:38:55;19.77;;;13.57;;
24873;SDS011;12945;42.648;23.370;2023-09-07T06:41:20;20.52;;;13.30;;
24873;SDS011;12945;42.648;23.370;2023-09-07T06:43:46;17.20;;;13.38;;
24873;SDS011;12945;42.648;23.370;2023-09-07T06:46:11;31.13;;;15.38;;
24873;SDS011;12945;42.648;23.370;2023-09-07T06:48:36;25.02;;;15.20;;
24873;SDS011;12945;42.648;23.370;2023-09-07T06:51:02;13.48;;;10.18;;
24873;SDS011;12945;42.648;23.370;2023-09-07T06:53:29;16.20;;;10.82;;
24873;SDS011;12945;42.648;23.370;2023-09-07T06:56:00;16.65;;;11.18;;
24873;SDS011;12945;42.648;23.370;2023-09-07T06:58:26;16.77;;;9.93;;
24873;SDS011;12945;42.648;23.370;2023-09-07T07:00:51;12.10;;;9.27;;
24873;SDS011;12945;42.648;23.370;2023-09-07T07:03:16;16.25;;;11.10;;
24873;SDS011;12945;42.648;23.370;2023-09-07T07:05:41;17.52;;;10.48;;
24873;SDS011;12945;42.648;23.370;2023-09-07T07:08:07;22.55;;;11.80;;
24873;SDS011;12945;42.648;23.370;2023-09-07T07:10:32;17.67;;;10.68;;
24873;SDS011;12945;42.648;23.370;2023-09-07T07:12:58;16.52;;;12.02;;
24873;SDS011;12945;42.648;23.370;2023-09-07T07:15:23;14.82;;;11.50;;
24873;SDS011;12945;42.648;23.370;2023-09-07T07:17:48;19.27;;;12.40;;
24873;SDS011;12945;42.648;23.370;2023-09-07T07:20:14;18.85;;;12.02;;
24873;SDS011;12945;42.648;23.370;2023-09-07T07:22:39;19.70;;;11.82;;
24873;SDS011;12945;42.648;23.370;2023-09-07T07:25:05;20.73;;;13.80;;
24873;SDS011;12945;42.648;23.370;2023-09-07T07:27:31;21.27;;;12.95;;
24873;SDS011;12945;42.648;23.370;2023-09-07T07:29:56;25.90;;;12.00;;
24873;SDS011;12945;42.648;23.370;2023-09-07T07:32:21;15.10;;;11.05;;
24873;SDS011;12945;42.648;23.370;2023-09-07T07:34:46;21.58;;;12.57;;
24873;SDS011;12945;42.648;23.370;2023-09-07T07:37:12;19.80;;;11.25;;
24873;SDS011;12945;42.648;23.370;2023-09-07T07:39:37;21.08;;;12.63;;
24873;SDS011;12945;42.648;23.370;2023-09-07T07:42:03;19.67;;;14.40;;
24873;SDS011;12945;42.648;23.370;2023-09-07T07:44:29;23.23;;;13.65;;
24873;SDS011;12945;42.648;23.370;2023-09-07T07:46:54;25.17;;;11.63;;
24873;SDS011;12945;42.648;23.370;2023-09-07T07:49:20;14.00;;;9.98;;
24873;SDS011;12945;42.648;23.370;2023-09-07T07:51:48;17.23;;;10.50;;
24873;SDS011;12945;42.648;23.370;2023-09-07T07:54:26;14.70;;;10.00;;
24873;SDS011;12945;42.648;23.370;2023-09-07T07:56:53;15.82;;;9.98;;
24873;SDS011;12945;42.648;23.370;2023-09-07T07:59:18;14.27;;;11.00;;
24873;SDS011;12945;42.648;23.370;2023-09-07T08:01:44;14.50;;;10.00;;
24873;SDS011;12945;42.648;23.370;2023-09-07T08:04:09;19.10;;;10.38;;
24873;SDS011;12945;42.648;23.370;2023-09-07T08:06:34;17.17;;;10.43;;
24873;SDS011;12945;42.648;23.370;2023-09-07T08:09:00;15.55;;;10.27;;
24873;SDS011;12945;42.648;23.370;2023-09-07T08:11:25;16.45;;;11.30;;
24873;SDS011;12945;42.648;23.370;2023-09-07T08:13:51;18.17;;;11.63;;
24873;SDS011;12945;42.648;23.370;2023-09-07T08:16:17;13.70;;;10.43;;
24873;SDS011;12945;42.648;23.370;2023-09-07T08:18:42;15.73;;;9.63;;
24873;SDS011;12945;42.648;23.370;2023-09-07T08:21:08;16.35;;;9.07;;
24873;SDS011;12945;42.648;23.370;2023-09-07T08:23:33;11.63;;;9.02;;
24873;SDS011;12945;42.648;23.370;2023-09-07T08:25:59;10.38;;;9.13;;
24873;SDS011;12945;42.648;23.370;2023-09-07T08:28:25;14.52;;;8.82;;
24873;SDS011;12945;42.648;23.370;2023-09-07T08:30:51;10.95;;;8.82;;
24873;SDS011;12945;42.648;23.370;2023-09-07T08:33:20;14.77;;;7.65;;
24873;SDS011;12945;42.648;23.370;2023-09-07T08:35:51;11.93;;;8.35;;
24873;SDS011;12945;42.648;23.370;2023-09-07T08:38:16;15.40;;;7.78;;
24873;SDS011;12945;42.648;23.370;2023-09-07T08:40:42;12.45;;;7.80;;
24873;SDS011;12945;42.648;23.370;2023-09-07T08:43:08;12.48;;;7.40;;
24873;SDS011;12945;42.648;23.370;2023-09-07T08:45:36;10.68;;;7.47;;
24873;SDS011;12945;42.648;23.370;2023-09-07T08:48:02;18.48;;;7.10;;
24873;SDS011;12945;42.648;23.370;2023-09-07T08:50:28;13.18;;;7.43;;
24873;SDS011;12945;42.648;23.370;2023-09-07T08:52:55;13.35;;;8.30;;
24873;SDS011;12945;42.648;23.370;2023-09-07T08:55:23;14.38;;;7.53;;
24873;SDS011;12945;42.648;23.370;2023-09-07T08:57:49;13.98;;;7.72;;
24873;SDS011;12945;42.648;23.370;2023-09-07T09:00:14;19.88;;;8.13;;
24873;SDS011;12945;42.648;23.370;2023-09-07T09:02:41;10.85;;;7.53;;
24873;SDS011;12945;42.648;23.370;2023-09-07T09:05:08;10.68;;;6.95;;
24873;SDS011;12945;42.648;23.370;2023-09-07T09:07:34;10.98;;;6.88;;
24873;SDS011;12945;42.648;23.370;2023-09-07T09:12:27;12.88;;;6.47;;
24873;SDS011;12945;42.648;23.370;2023-09-07T09:14:52;11.90;;;6.05;;
24873;SDS011;12945;42.648;23.370;2023-09-07T09:17:18;11.43;;;6.03;;
24873;SDS011;12945;42.648;23.370;2023-09-07T09:19:43;12.98;;;5.85;;
24873;SDS011;12945;42.648;23.370;2023-09-07T09:22:08;12.80;;;6.40;;
24873;SDS011;12945;42.648;23.370;2023-09-07T09:24:34;16.95;;;6.90;;
24873;SDS011;12945;42.648;23.370;2023-09-07T09:27:00;9.88;;;6.20;;
24873;SDS011;12945;42.648;23.370;2023-09-07T09:29:25;8.52;;;6.00;;
24873;SDS011;12945;42.648;23.370;2023-09-07T09:31:52;9.43;;;6.45;;
24873;SDS011;12945;42.648;23.370;2023-09-07T09:34:18;17.17;;;6.78;;
24873;SDS011;12945;42.648;23.370;2023-09-07T09:36:43;9.35;;;6.25;;
24873;SDS011;12945;42.648;23.370;2023-09-07T09:39:09;15.38;;;6.20;;
24873;SDS011;12945;42.648;23.370;2023-09-07T09:41:34;11.98;;;5.97;;
24873;SDS011;12945;42.648;23.370;2023-09-07T09:44:00;12.15;;;6.15;;
24873;SDS011;12945;42.648;23.370;2023-09-07T09:46:27;10.70;;;5.82;;
24873;SDS011;12945;42.648;23.370;2023-09-07T09:48:54;9.98;;;6.13;;
24873;SDS011;12945;42.648;23.370;2023-09-07T09:51:19;11.90;;;5.68;;
24873;SDS011;12945;42.648;23.370;2023-09-07T09:53:44;9.32;;;6.15;;
24873;SDS011;12945;42.648;23.370;2023-09-07T09:56:10;9.65;;;5.80;;
24873;SDS011;12945;42.648;23.370;2023-09-07T09:58:36;11.70;;;5.75;;
24873;SDS011;12945;42.648;23.370;2023-09-07T10:01:02;13.30;;;6.45;;
24873;SDS011;12945;42.648;23.370;2023-09-07T10:03:34;9.05;;;6.03;;
24873;SDS011;12945;42.648;23.370;2023-09-07T10:06:10;8.32;;;6.03;;
24873;SDS011;12945;42.648;23.370;2023-09-07T10:08:36;15.52;;;6.53;;
24873;SDS011;12945;42.648;23.370;2023-09-07T10:11:06;11.85;;;5.75;;
24873;SDS011;12945;42.648;23.370;2023-09-07T10:13:32;9.70;;;5.80;;
24873;SDS011;12945;42.648;23.370;2023-09-07T10:16:04;8.77;;;5.47;;
24873;SDS011;12945;42.648;23.370;2023-09-07T10:18:38;8.27;;;6.28;;
24873;SDS011;12945;42.648;23.370;2023-09-07T10:21:04;8.13;;;6.30;;
24873;SDS011;12945;42.648;23.370;2023-09-07T10:23:36;13.80;;;5.43;;
24873;SDS011;12945;42.648;23.370;2023-09-07T10:26:02;16.73;;;6.10;;
24873;SDS011;12945;42.648;23.370;2023-09-07T10:28:29;10.50;;;5.90;;
24873;SDS011;12945;42.648;23.370;2023-09-07T10:31:01;9.15;;;5.40;;
24873;SDS011;12945;42.648;23.370;2023-09-07T10:33:28;7.57;;;5.32;;
24873;SDS011;12945;42.648;23.370;2023-09-07T10:35:54;10.40;;;5.63;;
24873;SDS011;12945;42.648;23.370;2023-09-07T10:38:19;11.55;;;5.50;;
24873;SDS011;12945;42.648;23.370;2023-09-07T10:40:45;9.68;;;5.63;;
24873;SDS011;12945;42.648;23.370;2023-09-07T10:43:10;11.52;;;5.28;;
24873;SDS011;12945;42.648;23.370;2023-09-07T10:45:37;10.30;;;6.03;;
24873;SDS011;12945;42.648;23.370;2023-09-07T10:48:02;9.30;;;5.60;;
24873;SDS011;12945;42.648;23.370;2023-09-07T10:50:30;10.68;;;5.85;;
24873;SDS011;12945;42.648;23.370;2023-09-07T10:52:56;10.68;;;5.18;;
24873;SDS011;12945;42.648;23.370;2023-09-07T10:55:21;12.77;;;5.90;;
24873;SDS011;12945;42.648;23.370;2023-09-07T10:57:47;13.27;;;6.30;;
24873;SDS011;12945;42.648;23.370;2023-09-07T11:00:13;7.75;;;5.65;;
24873;SDS011;12945;42.648;23.370;2023-09-07T11:02:39;12.00;;;6.38;;
24873;SDS011;12945;42.648;23.370;2023-09-07T11:05:05;10.23;;;5.43;;
24873;SDS011;12945;42.648;23.370;2023-09-07T11:07:30;9.20;;;6.00;;
24873;SDS011;12945;42.648;23.370;2023-09-07T11:09:56;9.15;;;6.03;;
24873;SDS011;12945;42.648;23.370;2023-09-07T11:12:21;9.90;;;6.28;;
24873;SDS011;12945;42.648;23.370;2023-09-07T11:14:47;12.73;;;5.97;;
24873;SDS011;12945;42.648;23.370;2023-09-07T11:17:13;10.18;;;5.78;;
24873;SDS011;12945;42.648;23.370;2023-09-07T11:19:38;10.10;;;6.13;;
24873;SDS011;12945;42.648;23.370;2023-09-07T11:22:04;7.30;;;5.78;;
24873;SDS011;12945;42.648;23.370;2023-09-07T11:24:30;10.80;;;5.88;;
24873;SDS011;12945;42.648;23.370;2023-09-07T11:26:55;10.50;;;6.10;;
24873;SDS011;12945;42.648;23.370;2023-09-07T11:29:22;12.45;;;6.38;;
24873;SDS011;12945;42.648;23.370;2023-09-07T11:31:48;10.63;;;5.82;;
24873;SDS011;12945;42.648;23.370;2023-09-07T11:34:13;11.48;;;5.32;;
24873;SDS011;12945;42.648;23.370;2023-09-07T11:36:39;8.35;;;5.18;;
24873;SDS011;12945;42.648;23.370;2023-09-07T11:39:05;6.43;;;5.45;;
24873;SDS011;12945;42.648;23.370;2023-09-07T11:41:37;7.97;;;5.25;;
24873;SDS011;12945;42.648;23.370;2023-09-07T11:44:02;7.10;;;5.07;;
24873;SDS011;12945;42.648;23.370;2023-09-07T11:46:27;10.63;;;5.03;;
24873;SDS011;12945;42.648;23.370;2023-09-07T11:48:54;11.50;;;5.18;;
24873;SDS011;12945;42.648;23.370;2023-09-07T11:51:19;7.97;;;4.75;;
24873;SDS011;12945;42.648;23.370;2023-09-07T11:53:46;9.45;;;5.40;;
24873;SDS011;12945;42.648;23.370;2023-09-07T11:56:11;12.23;;;5.15;;
24873;SDS011;12945;42.648;23.370;2023-09-07T11:58:37;12.48;;;5.18;;
24873;SDS011;12945;42.648;23.370;2023-09-07T12:01:02;11.75;;;5.15;;
24873;SDS011;12945;42.648;23.370;2023-09-07T12:03:29;8.98;;;5.40;;
24873;SDS011;12945;42.648;23.370;2023-09-07T12:05:55;11.77;;;5.28;;
24873;SDS011;12945;42.648;23.370;2023-09-07T12:08:20;9.20;;;6.05;;
24873;SDS011;12945;42.648;23.370;2023-09-07T12:10:46;8.10;;;5.10;;
24873;SDS011;12945;42.648;23.370;2023-09-07T12:13:11;6.63;;;4.75;;
24873;SDS011;12945;42.648;23.370;2023-09-07T12:15:37;8.85;;;4.72;;
24873;SDS011;12945;42.648;23.370;2023-09-07T12:18:03;11.02;;;5.03;;
24873;SDS011;12945;42.648;23.370;2023-09-07T12:20:28;7.68;;;5.22;;
24873;SDS011;12945;42.648;23.370;2023-09-07T12:22:54;7.63;;;4.85;;
24873;SDS011;12945;42.648;23.370;2023-09-07T12:25:19;7.28;;;5.00;;
24873;SDS011;12945;42.648;23.370;2023-09-07T12:27:44;19.15;;;5.38;;
24873;SDS011;12945;42.648;23.370;2023-09-07T12:30:11;8.40;;;5.15;;
24873;SDS011;12945;42.648;23.370;2023-09-07T12:32:38;8.88;;;5.15;;
24873;SDS011;12945;42.648;23.370;2023-09-07T12:35:04;10.07;;;5.00;;
24873;SDS011;12945;42.648;23.370;2023-09-07T12:37:33;7.45;;;4.78;;
24873;SDS011;12945;42.648;23.370;2023-09-07T12:39:59;11.07;;;5.43;;
24873;SDS011;12945;42.648;23.370;2023-09-07T12:42:24;6.75;;;4.95;;
24873;SDS011;12945;42.648;23.370;2023-09-07T12:44:49;11.10;;;5.82;;
24873;SDS011;12945;42.648;23.370;2023-09-07T12:47:15;10.88;;;5.57;;
24873;SDS011;12945;42.648;23.370;2023-09-07T12:49:40;9.82;;;4.50;;
24873;SDS011;12945;42.648;23.370;2023-09-07T12:52:06;6.50;;;4.53;;
24873;SDS011;12945;42.648;23.370;2023-09-07T12:54:36;9.20;;;5.10;;
24873;SDS011;12945;42.648;23.370;2023-09-07T12:57:02;5.53;;;4.60;;
24873;SDS011;12945;42.648;23.370;2023-09-07T12:59:28;8.48;;;4.60;;
24873;SDS011;12945;42.648;23.370;2023-09-07T13:01:53;14.43;;;5.13;;
24873;SDS011;12945;42.648;23.370;2023-09-07T13:04:20;8.27;;;4.82;;
24873;SDS011;12945;42.648;23.370;2023-09-07T13:06:46;11.32;;;4.68;;
24873;SDS011;12945;42.648;23.370;2023-09-07T13:09:11;9.48;;;4.93;;
24873;SDS011;12945;42.648;23.370;2023-09-07T13:11:36;8.40;;;4.18;;
24873;SDS011;12945;42.648;23.370;2023-09-07T13:14:02;9.27;;;4.63;;
24873;SDS011;12945;42.648;23.370;2023-09-07T13:16:27;14.95;;;4.60;;
24873;SDS011;12945;42.648;23.370;2023-09-07T13:18:52;9.90;;;4.30;;
24873;SDS011;12945;42.648;23.370;2023-09-07T13:21:18;6.10;;;4.40;;
24873;SDS011;12945;42.648;23.370;2023-09-07T13:23:44;8.77;;;4.25;;
24873;SDS011;12945;42.648;23.370;2023-09-07T13:26:11;7.90;;;4.30;;
24873;SDS011;12945;42.648;23.370;2023-09-07T13:28:37;7.35;;;4.50;;
24873;SDS011;12945;42.648;23.370;2023-09-07T13:31:03;8.88;;;4.45;;
24873;SDS011;12945;42.648;23.370;2023-09-07T13:33:28;8.13;;;4.15;;
24873;SDS011;12945;42.648;23.370;2023-09-07T13:35:54;5.75;;;4.15;;
24873;SDS011;12945;42.648;23.370;2023-09-07T13:38:21;8.35;;;3.97;;
24873;SDS011;12945;42.648;23.370;2023-09-07T13:40:47;8.13;;;4.30;;
24873;SDS011;12945;42.648;23.370;2023-09-07T13:43:12;11.70;;;4.68;;
24873;SDS011;12945;42.648;23.370;2023-09-07T13:45:37;6.57;;;4.35;;
24873;SDS011;12945;42.648;23.370;2023-09-07T13:48:03;8.15;;;4.13;;
24873;SDS011;12945;42.648;23.370;2023-09-07T13:50:28;10.60;;;4.40;;
24873;SDS011;12945;42.648;23.370;2023-09-07T13:52:54;10.55;;;4.90;;
24873;SDS011;12945;42.648;23.370;2023-09-07T13:55:19;6.63;;;4.47;;
24873;SDS011;12945;42.648;23.370;2023-09-07T13:57:45;9.30;;;4.65;;
24873;SDS011;12945;42.648;23.370;2023-09-07T14:00:10;8.93;;;4.40;;
24873;SDS011;12945;42.648;23.370;2023-09-07T14:02:36;13.32;;;4.40;;
24873;SDS011;12945;42.648;23.370;2023-09-07T14:05:01;8.70;;;4.13;;
24873;SDS011;12945;42.648;23.370;2023-09-07T14:07:27;9.18;;;4.63;;
24873;SDS011;12945;42.648;23.370;2023-09-07T14:09:56;9.88;;;4.68;;
24873;SDS011;12945;42.648;23.370;2023-09-07T14:12:21;8.52;;;4.90;;
24873;SDS011;12945;42.648;23.370;2023-09-07T14:14:47;8.43;;;4.25;;
24873;SDS011;12945;42.648;23.370;2023-09-07T14:17:12;19.40;;;5.20;;
24873;SDS011;12945;42.648;23.370;2023-09-07T14:19:38;10.10;;;4.80;;
24873;SDS011;12945;42.648;23.370;2023-09-07T14:22:03;11.68;;;5.07;;
24873;SDS011;12945;42.648;23.370;2023-09-07T14:24:29;7.03;;;4.38;;
24873;SDS011;12945;42.648;23.370;2023-09-07T14:26:54;6.03;;;4.53;;
24873;SDS011;12945;42.648;23.370;2023-09-07T14:29:19;11.77;;;4.60;;
24873;SDS011;12945;42.648;23.370;2023-09-07T14:31:45;7.90;;;4.80;;
24873;SDS011;12945;42.648;23.370;2023-09-07T14:34:11;14.45;;;4.72;;
24873;SDS011;12945;42.648;23.370;2023-09-07T14:36:36;13.07;;;5.05;;
24873;SDS011;12945;42.648;23.370;2023-09-07T14:39:11;11.45;;;5.10;;
24873;SDS011;12945;42.648;23.370;2023-09-07T14:41:37;9.90;;;4.70;;
24873;SDS011;12945;42.648;23.370;2023-09-07T14:44:03;10.07;;;4.65;;
24873;SDS011;12945;42.648;23.370;2023-09-07T14:46:28;10.52;;;4.47;;
24873;SDS011;12945;42.648;23.370;2023-09-07T14:48:54;10.50;;;4.70;;
24873;SDS011;12945;42.648;23.370;2023-09-07T14:51:19;9.40;;;5.00;;
24873;SDS011;12945;42.648;23.370;2023-09-07T14:53:45;6.50;;;5.00;;
24873;SDS011;12945;42.648;23.370;2023-09-07T14:56:10;12.25;;;5.05;;
24873;SDS011;12945;42.648;23.370;2023-09-07T14:58:35;7.95;;;4.55;;
24873;SDS011;12945;42.648;23.370;2023-09-07T15:01:01;10.80;;;5.00;;
24873;SDS011;12945;42.648;23.370;2023-09-07T15:03:27;6.93;;;4.88;;